Time;durP1;ratioP1;P1;durP2;ratioP2;P2;SDS_P1;SDS_P2;PMS_P1;PMS_P2;Temp;Humidity;BMP_temperature;BMP_pressure;BME280_temperature;BME280_humidity;BME280_pressure;Samples;Min_cycle;Max_cycle;Signal;HPM_P1;HPM_P2
2022/04/21 00:01:05;;;;;;;6.85;5.88;;;;;;;10.15;63.06;100690.19;5060108;28;20414;-79
2022/04/21 00:03:32;;;;;;;7.63;5.85;;;;;;;10.22;62.65;100693.88;5061185;28;20135;-78
2022/04/21 00:05:58;;;;;;;6.82;5.38;;;;;;;10.18;63.13;100689.88;5058406;28;20132;-78
2022/04/21 00:08:25;;;;;;;10.25;5.50;;;;;;;10.17;62.84;100684.81;5055933;28;20088;-80
2022/04/21 00:10:52;;;;;;;10.35;6.10;;;;;;;10.09;63.65;100682.94;5056452;28;20092;-79
2022/04/21 00:13:19;;;;;;;7.97;5.95;;;;;;;10.06;63.63;100688.47;5056211;28;20128;-79
2022/04/21 00:15:46;;;;;;;7.28;5.85;;;;;;;10.06;63.68;100685.03;5057756;28;20120;-78
2022/04/21 00:18:13;;;;;;;7.35;5.55;;;;;;;10.06;63.50;100682.44;5057304;28;20135;-80
2022/04/21 00:20:39;;;;;;;7.35;5.60;;;;;;;10.18;62.77;100687.28;5055802;28;20371;-78
2022/04/21 00:25:50;;;;;;;10.90;5.80;;;;;;;10.14;62.90;100685.09;5053788;28;20060;-78
2022/04/21 00:28:17;;;;;;;7.38;5.70;;;;;;;10.13;62.73;100686.06;5054399;28;20044;-78
2022/04/21 00:30:45;;;;;;;7.95;5.80;;;;;;;10.05;63.39;100679.00;5056650;28;20055;-77
2022/04/21 00:33:11;;;;;;;8.18;5.45;;;;;;;10.08;63.00;100681.31;5066545;28;20092;-77
2022/04/21 00:35:38;;;;;;;9.27;5.55;;;;;;;10.12;62.70;100672.19;5060001;28;20131;-78
2022/04/21 00:38:05;;;;;;;6.82;5.50;;;;;;;10.03;63.32;100677.50;5055008;28;20053;-77
2022/04/21 00:40:32;;;;;;;8.85;5.65;;;;;;;9.96;63.42;100677.28;5058555;28;20445;-77
2022/04/21 00:43:00;;;;;;;10.30;5.40;;;;;;;9.95;63.58;100678.25;5059711;28;20056;-78
2022/04/21 00:45:29;;;;;;;7.13;5.35;;;;;;;9.91;63.69;100680.38;5055404;28;20055;-78
2022/04/21 01:08:38;;;;;;;;;;;;;;;;;;;;;
2022/04/21 01:27:51;;;;;;;10.05;6.65;;;;;;;9.21;66.48;100658.44;4956601;28;20074;-82
2022/04/21 01:33:38;;;;;;;9.15;5.93;;;;;;;9.16;66.74;100660.66;5083813;22;20087;-79
2022/04/21 01:36:05;;;;;;;8.45;6.28;;;;;;;9.14;66.64;100662.59;5064499;28;20068;-78
2022/04/21 01:41:16;;;;;;;7.90;5.90;;;;;;;9.23;66.39;100663.53;5058696;28;20494;-78
2022/04/21 01:43:44;;;;;;;9.85;6.00;;;;;;;9.30;65.51;100660.19;5057675;28;20076;-78
2022/04/21 01:46:11;;;;;;;8.77;6.55;;;;;;;9.26;66.14;100656.22;5057449;28;20049;-77
2022/04/21 01:48:37;;;;;;;7.90;6.00;;;;;;;9.15;66.33;100656.41;5056840;28;20158;-78
2022/04/21 01:51:04;;;;;;;7.75;6.20;;;;;;;9.12;66.53;100648.88;5058564;28;20495;-78
2022/04/21 01:53:31;;;;;;;7.85;5.88;;;;;;;9.14;66.64;100652.16;5059062;28;20576;-79
2022/04/21 01:55:58;;;;;;;7.97;5.75;;;;;;;9.13;66.19;100645.31;5058770;28;20059;-78
2022/04/21 01:58:25;;;;;;;9.05;6.00;;;;;;;9.16;66.42;100641.56;5056551;28;20049;-78
2022/04/21 02:00:53;;;;;;;10.43;6.30;;;;;;;9.04;66.53;100642.72;5054811;28;20071;-77
2022/04/21 02:03:20;;;;;;;8.13;5.90;;;;;;;8.94;66.95;100637.59;5056082;28;20341;-78
2022/04/21 02:05:47;;;;;;;9.77;6.38;;;;;;;8.79;68.13;100639.84;5056934;28;20132;-78
2022/04/21 02:08:14;;;;;;;8.25;6.00;;;;;;;8.75;67.93;100643.72;5056255;28;20049;-79
2022/04/21 02:10:40;;;;;;;8.48;5.85;;;;;;;8.66;68.53;100647.19;5057222;28;20089;-78
2022/04/21 02:13:07;;;;;;;11.40;6.20;;;;;;;8.61;68.48;100638.94;5056942;28;20533;-78
2022/04/21 02:15:33;;;;;;;8.77;6.25;;;;;;;8.53;69.11;100638.84;5057415;28;20135;-78
2022/04/21 02:18:02;;;;;;;8.85;6.10;;;;;;;8.43;69.54;100632.84;5057744;28;20155;-77
2022/04/21 02:20:28;;;;;;;8.00;5.85;;;;;;;8.59;68.82;100636.50;5056266;28;20056;-78
2022/04/21 02:22:55;;;;;;;7.93;6.40;;;;;;;8.62;68.57;100636.19;5057033;28;20402;-79
2022/04/21 02:25:22;;;;;;;8.63;6.10;;;;;;;8.74;68.21;100636.84;5057482;28;20108;-79
2022/04/21 02:27:50;;;;;;;8.95;6.35;;;;;;;8.73;67.96;100637.00;5058107;28;20080;-78
2022/04/21 02:30:18;;;;;;;8.18;6.43;;;;;;;8.63;68.70;100637.03;5059527;28;20063;-79
2022/04/21 02:32:45;;;;;;;9.40;6.65;;;;;;;8.50;69.11;100639.16;5060414;28;20048;-80
2022/04/21 02:35:15;;;;;;;9.13;6.45;;;;;;;8.45;69.41;100642.19;5060444;28;20055;-79
2022/04/21 02:37:43;;;;;;;7.60;6.32;;;;;;;8.39;69.47;100637.53;5058880;28;20136;-79
2022/04/21 02:40:11;;;;;;;12.65;6.47;;;;;;;8.32;69.77;100631.22;5056197;28;20051;-79
2022/04/21 02:42:38;;;;;;;6.75;5.78;;;;;;;8.24;70.14;100634.50;5057723;28;20048;-79
2022/04/21 02:45:06;;;;;;;9.07;6.18;;;;;;;8.19;70.34;100630.69;5056946;28;20395;-79
2022/04/21 02:47:35;;;;;;;10.15;6.35;;;;;;;8.17;70.51;100638.63;5057351;28;20464;-79
2022/04/21 02:50:02;;;;;;;9.90;6.60;;;;;;;8.06;70.95;100628.38;5055878;28;20136;-77
2022/04/21 02:52:30;;;;;;;10.25;6.80;;;;;;;8.02;71.26;100624.44;5054732;28;20083;-77
2022/04/21 02:57:47;;;;;;;10.02;7.18;;;;;;;7.83;72.37;100620.03;5000657;28;20137;-79
2022/04/21 03:00:14;;;;;;;12.85;7.20;;;;;;;7.81;72.60;100624.56;5057065;28;20087;-78
2022/04/21 03:02:41;;;;;;;8.98;7.07;;;;;;;7.81;72.23;100621.97;5058190;28;20052;-80
2022/04/21 03:05:09;;;;;;;10.45;7.43;;;;;;;7.80;72.31;100620.31;5057798;28;20092;-79
2022/04/21 03:07:37;;;;;;;12.52;6.78;;;;;;;7.80;71.91;100627.31;5057908;28;20541;-79
2022/04/21 03:10:04;;;;;;;9.50;7.43;;;;;;;7.71;72.21;100628.13;5057901;28;20053;-80
2022/04/21 03:12:30;;;;;;;8.95;7.10;;;;;;;7.77;72.76;100627.59;5057928;28;20483;-79
2022/04/21 03:14:57;;;;;;;9.30;6.88;;;;;;;7.69;73.30;100628.28;5057030;28;20091;-80
2022/04/21 03:17:24;;;;;;;12.73;7.35;;;;;;;7.69;73.02;100624.84;5056333;28;20358;-78
2022/04/21 03:19:51;;;;;;;8.13;6.50;;;;;;;7.66;73.22;100624.16;5057319;28;20045;-79
2022/04/21 03:25:06;;;;;;;9.18;6.68;;;;;;;7.58;73.74;100616.19;5057631;28;20060;-79
2022/04/21 03:27:34;;;;;;;10.95;6.45;;;;;;;7.65;72.79;100621.69;5056942;28;20403;-79
2022/04/21 03:30:00;;;;;;;8.05;6.70;;;;;;;7.70;72.71;100618.69;5056836;28;20044;-79
2022/04/21 03:32:27;;;;;;;10.60;6.25;;;;;;;7.67;72.38;100624.97;5056155;28;20063;-78
2022/04/21 03:34:55;;;;;;;12.52;6.82;;;;;;;7.72;72.38;100622.78;5056497;28;20087;-79
2022/04/21 03:37:22;;;;;;;10.43;6.68;;;;;;;7.63;72.67;100628.81;5056142;28;20059;-79
2022/04/21 03:39:49;;;;;;;12.73;7.20;;;;;;;7.56;73.35;100625.94;5062146;28;20053;-79
2022/04/21 03:42:22;;;;;;;10.90;7.43;;;;;;;7.51;73.76;100622.13;5064217;28;20132;-79
2022/04/21 03:44:49;;;;;;;11.00;7.03;;;;;;;7.41;73.10;100623.88;5059055;28;20109;-79
2022/04/21 03:47:15;;;;;;;11.07;7.15;;;;;;;7.36;73.51;100634.72;5063509;28;20045;-77
2022/04/21 03:49:42;;;;;;;11.60;7.40;;;;;;;7.37;73.42;100633.75;5063221;28;20053;-78
2022/04/21 03:52:09;;;;;;;10.65;7.45;;;;;;;7.33;73.75;100632.38;5056033;28;20045;-78
2022/04/21 03:54:36;;;;;;;10.38;7.53;;;;;;;7.30;73.88;100630.03;5056526;28;20433;-78
2022/04/21 03:57:03;;;;;;;14.32;7.78;;;;;;;7.31;74.26;100634.28;5056152;28;20049;-78
2022/04/21 03:59:31;;;;;;;13.13;8.07;;;;;;;7.26;74.02;100633.88;5056028;28;20049;-79
2022/04/21 04:02:02;;;;;;;12.10;8.10;;;;;;;7.22;74.53;100627.28;5056955;28;20083;-78
2022/04/21 04:04:29;;;;;;;11.40;8.10;;;;;;;7.16;75.80;100640.81;5056424;28;20419;-79
2022/04/21 04:12:30;;;;;;;10.75;7.82;;;;;;;7.09;75.39;100639.75;5056991;28;20063;-79
2022/04/21 04:14:58;;;;;;;10.52;8.10;;;;;;;7.06;75.98;100634.78;5055476;28;20045;-79
2022/04/21 04:17:25;;;;;;;10.80;8.00;;;;;;;7.05;75.89;100638.34;5056935;28;20140;-78
2022/04/21 04:19:52;;;;;;;13.95;8.32;;;;;;;6.97;76.25;100639.00;5056616;28;20045;-78
2022/04/21 04:22:18;;;;;;;14.75;8.55;;;;;;;6.91;76.32;100640.38;5057017;28;20108;-79
2022/04/21 04:24:45;;;;;;;12.57;8.75;;;;;;;6.89;75.66;100642.28;5058453;28;20147;-79
2022/04/21 04:27:12;;;;;;;10.98;8.27;;;;;;;6.86;76.09;100641.72;5064678;28;20068;-79
2022/04/21 04:29:39;;;;;;;10.98;7.60;;;;;;;6.90;76.37;100645.69;5074968;28;20067;-78
2022/04/21 04:32:07;;;;;;;15.45;8.05;;;;;;;6.83;76.70;100642.78;5076092;28;20041;-78
2022/04/21 04:34:34;;;;;;;13.50;8.02;;;;;;;6.84;77.15;100638.41;5076161;28;20029;-79
2022/04/21 04:37:01;;;;;;;10.95;8.20;;;;;;;6.80;77.57;100640.44;5076047;28;20072;-79
2022/04/21 04:39:28;;;;;;;11.13;8.07;;;;;;;6.80;77.02;100635.25;5075016;28;20045;-78
2022/04/21 04:44:38;;;;;;;12.27;8.55;;;;;;;6.85;77.45;100634.84;5063086;28;20083;-79
2022/04/21 04:47:06;;;;;;;11.98;7.95;;;;;;;6.85;77.58;100638.28;5056117;28;20135;-77
2022/04/21 04:49:32;;;;;;;12.30;8.52;;;;;;;6.82;77.81;100635.94;5057805;28;20048;-78
2022/04/21 04:51:59;;;;;;;11.02;8.40;;;;;;;6.89;77.69;100647.47;5059781;28;20076;-77
2022/04/21 04:54:27;;;;;;;9.85;7.68;;;;;;;6.99;76.90;100643.13;5058064;28;20434;-78
2022/04/21 04:56:54;;;;;;;9.77;8.20;;;;;;;7.09;76.66;100634.53;5059516;28;20072;-78
2022/04/21 04:59:21;;;;;;;10.60;8.02;;;;;;;7.12;77.00;100634.22;5057028;28;20395;-77
2022/04/21 05:01:48;;;;;;;12.43;8.15;;;;;;;7.22;76.16;100637.69;5056036;28;20057;-77
2022/04/21 05:04:17;;;;;;;10.45;8.05;;;;;;;7.29;76.08;100636.19;5056948;28;20045;-80
2022/04/21 05:06:45;;;;;;;9.98;8.07;;;;;;;7.44;75.54;100645.28;5061070;28;20379;-78
2022/04/21 05:09:13;;;;;;;10.10;7.57;;;;;;;7.58;75.13;100638.81;5062698;28;20072;-79
2022/04/21 05:11:41;;;;;;;14.82;9.18;;;;;;;7.58;75.01;100642.25;5058142;28;20053;-79
2022/04/21 05:14:09;;;;;;;14.27;8.23;;;;;;;7.49;75.40;100650.91;5055952;28;20053;-80
2022/04/21 05:16:36;;;;;;;12.95;8.57;;;;;;;7.60;75.26;100636.91;5056551;28;20113;-79
2022/04/21 05:19:04;;;;;;;10.82;8.10;;;;;;;7.49;76.07;100632.66;5056789;28;20071;-79
2022/04/21 05:21:33;;;;;;;14.90;8.27;;;;;;;7.42;76.26;100635.94;5058351;28;20105;-78
2022/04/21 05:24:00;;;;;;;14.82;8.20;;;;;;;7.48;75.57;100625.81;5058403;28;20059;-79
2022/04/21 05:26:28;;;;;;;10.93;7.95;;;;;;;7.59;75.22;100633.47;5056302;28;20048;-78
2022/04/21 05:28:56;;;;;;;13.60;8.15;;;;;;;7.76;74.38;100634.59;5055875;28;20061;-79
2022/04/21 05:31:22;;;;;;;11.38;7.70;;;;;;;7.91;74.09;100625.38;5061217;28;20104;-78
2022/04/21 05:33:50;;;;;;;12.63;8.35;;;;;;;8.01;73.46;100633.19;5056362;28;20041;-78
2022/04/21 05:36:17;;;;;;;9.70;7.35;;;;;;;8.21;73.00;100633.97;5057346;28;20059;-78
2022/04/21 05:38:47;;;;;;;9.27;7.25;;;;;;;8.61;71.56;100625.91;5055521;28;20048;-78
2022/04/21 05:41:15;;;;;;;11.27;6.85;;;;;;;9.65;68.81;100622.81;5056579;28;20045;-77
2022/04/21 05:43:43;;;;;;;11.10;7.55;;;;;;;11.05;64.78;100617.41;5055357;28;20411;-80
2022/04/21 05:46:11;;;;;;;22.67;7.38;;;;;;;12.31;60.07;100619.63;5055743;28;20183;-79
2022/04/21 05:48:39;;;;;;;12.27;6.93;;;;;;;13.17;55.89;100622.28;5055147;28;20049;-78
2022/04/21 05:51:06;;;;;;;12.38;7.20;;;;;;;13.59;53.80;100611.31;5059193;28;20495;-79
2022/04/21 05:53:36;;;;;;;11.55;6.90;;;;;;;14.52;51.53;100610.97;5068608;28;20072;-80
2022/04/21 05:56:06;;;;;;;16.20;6.97;;;;;;;14.53;50.25;100615.22;5061424;28;20052;-79
2022/04/21 05:58:33;;;;;;;10.90;6.68;;;;;;;14.85;49.65;100606.09;5055283;28;20393;-80
2022/04/21 06:01:01;;;;;;;10.57;6.40;;;;;;;15.00;48.94;100606.06;5057019;28;20055;-80
2022/04/21 06:03:28;;;;;;;7.10;6.40;;;;;;;14.96;49.04;100607.44;5057115;28;20112;-78
2022/04/21 06:05:54;;;;;;;10.40;6.18;;;;;;;15.47;48.57;100610.84;5055501;28;20112;-78
2022/04/21 06:08:21;;;;;;;9.25;6.43;;;;;;;15.59;47.22;100609.38;5057381;28;20056;-78
2022/04/21 06:10:48;;;;;;;10.18;6.38;;;;;;;16.20;45.65;100600.88;5057085;28;20121;-77
2022/04/21 06:13:16;;;;;;;7.88;6.15;;;;;;;15.53;46.40;100604.81;5055430;28;20443;-79
2022/04/21 06:15:43;;;;;;;11.15;6.53;;;;;;;16.04;46.09;100604.66;5058115;28;20055;-78
2022/04/21 06:18:13;;;;;;;10.77;6.43;;;;;;;16.23;45.89;100609.22;5058765;28;20053;-79
2022/04/21 06:20:40;;;;;;;8.80;6.40;;;;;;;16.23;45.86;100611.06;5061876;28;20077;-78
2022/04/21 06:23:07;;;;;;;9.68;6.10;;;;;;;16.74;44.72;100608.94;5056480;28;20103;-79
2022/04/21 06:25:35;;;;;;;8.73;6.38;;;;;;;16.75;44.71;100600.00;5058013;28;20128;-79
2022/04/21 06:28:03;;;;;;;7.90;6.30;;;;;;;16.70;45.33;100598.94;5058325;28;20403;-79
2022/04/21 06:30:31;;;;;;;12.30;6.00;;;;;;;17.05;44.11;100597.84;5058500;28;20061;-79
2022/04/21 06:32:58;;;;;;;10.40;7.43;;;;;;;17.06;44.00;100606.59;5059432;28;20076;-78
2022/04/21 06:35:25;;;;;;;8.60;5.82;;;;;;;17.45;42.72;100605.91;5060481;28;20124;-79
2022/04/21 06:37:52;;;;;;;8.75;6.40;;;;;;;17.58;43.27;100604.06;5057157;28;20415;-78
2022/04/21 06:40:19;;;;;;;8.45;6.38;;;;;;;16.90;43.55;100605.97;5058658;28;20071;-78
2022/04/21 06:42:46;;;;;;;9.52;6.60;;;;;;;17.32;43.40;100611.97;5058494;28;20073;-79
2022/04/21 06:48:05;;;;;;;8.93;7.30;;;;;;;16.69;43.82;100599.97;5060639;28;20055;-78
2022/04/21 06:50:33;;;;;;;10.02;7.18;;;;;;;17.21;42.80;100596.69;5061177;28;20124;-79
2022/04/21 06:53:01;;;;;;;8.52;7.63;;;;;;;16.96;43.97;100601.72;5059826;28;20048;-78
2022/04/21 06:55:28;;;;;;;11.68;7.15;;;;;;;16.77;43.33;100600.59;5067970;28;20048;-78
2022/04/21 06:57:55;;;;;;;7.95;6.38;;;;;;;17.10;42.85;100598.06;5062588;28;20049;-81
2022/04/21 07:00:22;;;;;;;7.50;6.65;;;;;;;18.46;40.18;100594.00;5059181;28;20163;-79
2022/04/21 07:02:51;;;;;;;11.48;7.65;;;;;;;17.71;40.88;100600.66;5058952;28;20111;-80
2022/04/21 07:05:19;;;;;;;9.57;6.80;;;;;;;17.88;40.54;100603.69;5057825;28;20045;-79
2022/04/21 07:07:47;;;;;;;10.05;6.30;;;;;;;16.80;43.37;100605.50;5056994;28;20049;-77
2022/04/21 07:10:13;;;;;;;9.90;6.72;;;;;;;15.37;44.79;100604.22;5055678;28;20412;-79
2022/04/21 07:12:40;;;;;;;8.75;5.80;;;;;;;15.18;45.65;100618.81;5056244;28;20055;-78
2022/04/21 07:15:09;;;;;;;8.77;6.30;;;;;;;15.81;45.49;100610.16;5055593;28;20045;-80
2022/04/21 07:17:37;;;;;;;7.93;6.80;;;;;;;15.77;45.41;100616.00;5056756;28;20479;-80
2022/04/21 07:20:05;;;;;;;8.75;6.25;;;;;;;16.40;45.10;100608.94;5056550;28;20138;-79
2022/04/21 07:22:33;;;;;;;8.52;6.43;;;;;;;17.34;42.63;100615.22;5056871;28;20052;-79
2022/04/21 07:25:03;;;;;;;10.82;6.53;;;;;;;18.17;40.55;100616.50;5056548;28;20132;-80
2022/04/21 07:27:30;;;;;;;10.63;6.45;;;;;;;18.34;40.08;100605.47;5056266;28;20120;-80
2022/04/21 07:29:57;;;;;;;7.90;6.30;;;;;;;16.69;43.51;100606.06;5056793;28;20147;-80
2022/04/21 07:38:21;;;;;;;6.70;5.65;;;;;;;16.47;43.92;100596.59;5053714;28;20368;-82
2022/04/21 07:40:50;;;;;;;7.13;5.80;;;;;;;17.32;41.65;100606.69;5056297;28;20048;-79
2022/04/21 07:43:17;;;;;;;7.00;5.80;;;;;;;16.59;43.71;100587.88;5057488;28;20087;-80
2022/04/21 07:45:51;;;;;;;12.93;6.32;;;;;;;16.94;42.16;100597.63;5057049;28;20049;-80
2022/04/21 07:49:44;;;;;;;13.50;6.32;;;;;;;17.25;42.38;100580.22;5057001;28;20045;-81
2022/04/21 07:51:15;;;;;;;9.05;5.97;;;;;;;17.40;41.60;100601.19;5055340;28;20044;-81
2022/04/21 07:54:10;;;;;;;8.75;6.10;;;;;;;16.76;42.10;100590.25;5056518;28;20045;-80
2022/04/21 07:56:38;;;;;;;7.63;6.18;;;;;;;16.19;43.23;100567.56;5058486;28;20073;-80
2022/04/21 07:59:11;;;;;;;10.77;6.57;;;;;;;17.34;42.53;100577.38;5053104;28;20052;-80
2022/04/21 08:01:38;;;;;;;10.95;6.45;;;;;;;16.65;43.28;100588.97;5058599;28;20156;-82
2022/04/21 08:04:11;;;;;;;9.68;6.55;;;;;;;15.66;44.66;100571.66;5056448;28;20408;-81
2022/04/21 08:06:37;;;;;;;7.68;6.13;;;;;;;17.14;42.06;100566.75;5056849;28;20095;-80
2022/04/21 08:09:09;;;;;;;8.50;6.20;;;;;;;17.74;41.01;100567.66;5057441;28;20049;-79
2022/04/21 08:11:59;;;;;;;12.13;7.53;;;;;;;17.87;40.04;100588.84;5055796;28;20061;-79
2022/04/21 08:14:45;;;;;;;7.95;6.22;;;;;;;17.45;40.13;100567.03;5057003;28;20110;-82
2022/04/21 08:17:54;;;;;;;8.63;6.35;;;;;;;17.51;40.24;100568.84;5056644;28;20053;-81
2022/04/21 08:32:33;;;;;;;7.72;5.75;;;;;;;17.07;41.53;100581.78;4906148;29;20048;-82
2022/04/21 08:50:44;;;;;;;7.78;5.28;;;;;;;16.62;41.69;100567.38;4984005;28;20050;-81
2022/04/21 08:57:23;;;;;;;9.27;5.53;;;;;;;16.47;40.34;100576.28;4972701;28;20078;-81
2022/04/21 09:04:16;;;;;;;7.88;5.30;;;;;;;16.57;40.67;100567.97;4829010;29;20098;-82
2022/04/21 09:38:16;;;;;;;;;;;;;;;;;;;;;
2022/04/21 09:48:14;;;;;;;4.72;3.25;;;;;;;17.41;31.00;100507.59;4998122;28;20066;-79
2022/04/21 10:15:16;;;;;;;;;;;;;;;;;;;;;
2022/04/21 11:11:50;;;;;;;6.40;4.28;;;;;;;17.21;35.01;100396.53;4994679;28;20078;-81
2022/04/21 11:15:49;;;;;;;7.80;4.10;;;;;;;17.43;35.71;100404.25;5047886;28;20045;-81
2022/04/21 11:44:53;;;;;;;7.47;4.53;;;;;;;16.21;40.60;100404.50;4934448;29;20095;-80
2022/04/21 11:50:49;;;;;;;;;;;;;;;15.95;41.19;100415.78;4937848;29;20436;-79
2022/04/21 11:53:56;;;;;;;7.30;5.07;;;;;;;15.84;41.90;100395.22;5024630;22;19925;-80
2022/04/21 11:59:58;;;;;;;;;;;;;;;;;;;;;
2022/04/21 12:20:13;;;;;;;7.72;4.93;;;;;;;16.23;41.64;100395.38;4831339;29;20062;-80
2022/04/21 12:26:40;;;;;;;8.95;5.15;;;;;;;16.56;41.35;100368.22;4815658;29;20100;-81
2022/04/21 12:29:23;;;;;;;11.32;5.20;;;;;;;17.02;40.33;100359.53;4991004;28;20053;-80
2022/04/21 12:42:44;;;;;;;10.65;6.00;;;;;;;17.10;41.00;100361.97;5020467;28;20056;-79
2022/04/21 12:48:56;;;;;;;7.85;5.20;;;;;;;17.09;40.87;100341.84;5016537;28;20060;-79
2022/04/21 12:55:25;;;;;;;12.05;5.80;;;;;;;17.88;39.55;100352.25;4952708;28;20058;-80
2022/04/21 12:59:03;;;;;;;7.95;5.20;;;;;;;18.11;39.32;100343.75;5006958;28;20497;-78
2022/04/21 13:05:09;;;;;;;9.40;5.88;;;;;;;17.56;40.32;100320.34;5049496;28;20488;-80
2022/04/21 13:07:36;;;;;;;7.03;5.70;;;;;;;17.51;40.51;100320.16;5047763;28;20045;-79
2022/04/21 13:10:03;;;;;;;19.25;5.30;;;;;;;17.49;40.89;100300.22;5056445;28;20045;-79
2022/04/21 13:12:35;;;;;;;7.28;5.65;;;;;;;17.77;41.06;100321.13;5058342;28;20102;-80
2022/04/21 13:15:43;;;;;;;8.33;4.90;;;;;;;17.70;41.34;100328.28;5056762;28;20106;-80
2022/04/21 13:18:22;;;;;;;8.52;5.40;;;;;;;17.80;41.43;100328.66;5046908;28;20065;-79
2022/04/21 13:23:40;;;;;;;7.63;5.32;;;;;;;17.92;40.65;100311.09;5052046;28;20060;-78
2022/04/21 13:26:09;;;;;;;12.50;5.47;;;;;;;17.86;41.05;100317.22;5052972;28;20122;-79
2022/04/21 13:28:58;;;;;;;8.82;5.78;;;;;;;17.49;41.96;100326.69;5071853;28;20465;-79
2022/04/21 13:34:10;;;;;;;6.47;5.38;;;;;;;16.89;42.83;100315.44;5090036;22;20096;-80
2022/04/21 13:36:47;;;;;;;10.80;5.72;;;;;;;16.81;43.72;100299.78;5083921;28;20487;-80
2022/04/21 13:39:15;;;;;;;8.75;5.60;;;;;;;16.95;43.63;100319.91;5096129;28;20093;-81
2022/04/21 13:41:54;;;;;;;6.72;5.32;;;;;;;16.68;43.85;100291.88;5095709;28;20055;-82
2022/04/21 13:44:26;;;;;;;6.63;5.18;;;;;;;16.39;44.70;100311.53;5079951;28;20092;-82
2022/04/21 13:46:56;;;;;;;7.95;5.43;;;;;;;16.80;44.34;100317.47;5066268;28;20069;-80
2022/04/21 13:49:33;;;;;;;8.82;5.80;;;;;;;16.75;43.77;100314.63;5065120;28;20051;-80
2022/04/21 13:52:04;;;;;;;9.02;5.20;;;;;;;17.06;43.99;100313.97;5068427;28;20402;-80
2022/04/21 13:54:35;;;;;;;9.18;5.68;;;;;;;16.81;43.71;100307.72;5067495;28;20052;-82
2022/04/21 13:57:03;;;;;;;8.15;5.45;;;;;;;16.92;44.08;100300.00;5074941;28;20068;-81
2022/04/21 13:59:30;;;;;;;9.85;5.95;;;;;;;16.73;43.09;100290.25;5080109;28;20476;-81
2022/04/21 14:01:56;;;;;;;7.40;5.45;;;;;;;16.91;43.21;100285.16;5065198;28;20052;-81
2022/04/21 14:04:23;;;;;;;7.55;5.82;;;;;;;17.04;43.88;100286.13;5082491;28;20479;-81
2022/04/21 14:06:52;;;;;;;9.07;5.45;;;;;;;17.30;43.16;100279.97;5071324;28;20240;-79
2022/04/21 14:09:20;;;;;;;8.68;5.47;;;;;;;17.64;42.60;100287.56;5070721;28;20080;-82
2022/04/21 14:11:47;;;;;;;10.30;5.68;;;;;;;17.46;42.57;100282.97;5076684;28;20080;-81
2022/04/21 14:14:13;;;;;;;10.57;5.88;;;;;;;17.56;42.44;100280.66;5064028;28;20049;-82
2022/04/21 14:16:40;;;;;;;13.45;6.47;;;;;;;17.11;43.77;100284.28;5078037;28;20051;-82
2022/04/21 14:19:07;;;;;;;10.73;5.80;;;;;;;17.40;42.82;100270.59;5070616;28;20053;-80
2022/04/21 14:21:34;;;;;;;9.48;5.78;;;;;;;17.59;42.50;100267.03;5068626;28;20055;-82
2022/04/21 14:24:01;;;;;;;8.63;5.72;;;;;;;17.87;42.01;100256.13;5080354;28;20483;-83
2022/04/21 14:26:31;;;;;;;7.30;5.50;;;;;;;17.82;42.13;100260.44;5067488;28;20048;-82
2022/04/21 14:28:57;;;;;;;7.88;5.43;;;;;;;18.12;41.42;100253.53;5074289;28;20049;-81
2022/04/21 14:31:24;;;;;;;10.38;6.03;;;;;;;17.70;41.44;100262.94;5077037;28;20079;-82
2022/04/21 14:33:51;;;;;;;9.50;5.70;;;;;;;17.56;42.36;100253.41;5070409;28;20383;-81
2022/04/21 14:36:17;;;;;;;10.68;5.50;;;;;;;18.26;41.57;100248.94;5086110;28;20388;-82
2022/04/21 14:44:15;;;;;;;8.45;5.93;;;;;;;17.66;43.08;100258.28;5063899;28;20399;-83
2022/04/21 14:46:45;;;;;;;8.32;6.22;;;;;;;17.54;43.60;100245.69;5067710;28;20037;-81
2022/04/21 14:49:16;;;;;;;8.40;6.38;;;;;;;17.72;43.40;100242.38;5072671;28;20507;-82
2022/04/21 14:51:44;;;;;;;11.52;6.65;;;;;;;17.47;43.92;100252.84;5076986;28;20084;-83
2022/04/21 14:54:12;;;;;;;7.80;6.32;;;;;;;17.56;44.00;100245.47;5065336;28;20049;-82
2022/04/21 14:56:41;;;;;;;9.70;6.32;;;;;;;17.44;43.91;100250.63;5075831;28;20098;-82
2022/04/21 14:59:11;;;;;;;10.80;7.05;;;;;;;17.03;45.51;100244.84;5072532;28;20045;-81
2022/04/21 15:01:38;;;;;;;9.50;6.78;;;;;;;17.24;45.62;100255.16;5067550;28;20152;-80
2022/04/21 15:04:06;;;;;;;11.48;7.45;;;;;;;17.30;45.62;100254.34;5080401;28;20075;-80
2022/04/21 15:06:32;;;;;;;12.18;7.43;;;;;;;17.16;45.50;100255.41;5069694;28;20109;-79
2022/04/21 15:08:59;;;;;;;12.40;8.02;;;;;;;16.96;46.38;100255.47;5077823;28;20049;-80
2022/04/21 15:11:26;;;;;;;8.50;7.40;;;;;;;17.06;46.87;100249.72;5076158;28;20131;-80
2022/04/21 15:13:56;;;;;;;10.27;7.82;;;;;;;17.04;46.42;100255.22;5068295;28;20049;-80
2022/04/21 15:16:22;;;;;;;10.30;7.50;;;;;;;17.02;46.34;100251.97;5079656;28;20041;-80
2022/04/21 15:18:52;;;;;;;10.93;7.70;;;;;;;16.93;46.58;100258.50;5072320;28;20083;-81
2022/04/21 15:21:19;;;;;;;12.40;7.38;;;;;;;16.85;47.03;100254.25;5068271;28;20253;-80
2022/04/21 15:23:46;;;;;;;10.15;8.35;;;;;;;16.87;47.02;100246.13;5068443;28;20106;-80
2022/04/21 15:26:14;;;;;;;10.32;8.23;;;;;;;17.09;46.25;100254.59;5062558;28;20521;-79
2022/04/21 15:28:41;;;;;;;13.18;9.07;;;;;;;16.98;47.20;100245.50;5068452;28;20414;-79
2022/04/21 15:31:08;;;;;;;12.55;8.15;;;;;;;16.54;47.89;100254.06;5067240;28;20108;-79
2022/04/21 15:33:36;;;;;;;10.98;8.23;;;;;;;16.84;47.37;100249.19;5067855;28;20083;-79
2022/04/21 15:36:03;;;;;;;8.85;7.85;;;;;;;17.01;47.43;100245.09;5078986;28;20162;-80
2022/04/21 15:38:30;;;;;;;13.25;7.85;;;;;;;16.87;47.30;100254.88;5065846;28;20116;-81
2022/04/21 15:40:57;;;;;;;11.77;7.80;;;;;;;16.88;47.45;100245.91;5075478;28;20079;-81
2022/04/21 15:43:24;;;;;;;10.38;7.22;;;;;;;16.96;47.83;100252.00;5063323;28;20057;-81
2022/04/21 15:45:51;;;;;;;11.45;6.78;;;;;;;17.19;46.98;100249.69;5077828;28;20112;-81
2022/04/21 15:48:22;;;;;;;12.00;7.03;;;;;;;17.08;47.49;100245.03;5057958;28;20045;-81
2022/04/21 15:50:48;;;;;;;8.95;7.15;;;;;;;16.95;47.83;100256.47;5061925;28;20049;-81
2022/04/21 15:58:55;;;;;;;14.52;7.68;;;;;;;16.69;48.16;100240.66;5061416;28;20086;-81
2022/04/21 16:01:24;;;;;;;12.45;7.70;;;;;;;16.70;48.31;100248.38;5064384;28;20052;-80
2022/04/21 16:03:59;;;;;;;13.07;8.10;;;;;;;16.87;48.13;100251.41;5075398;28;20114;-80
2022/04/21 16:06:27;;;;;;;13.32;8.55;;;;;;;16.85;47.90;100250.81;5056560;28;20664;-79
2022/04/21 16:08:55;;;;;;;9.60;7.43;;;;;;;16.83;47.79;100253.66;5071357;28;20080;-80
2022/04/21 16:11:22;;;;;;;12.60;7.80;;;;;;;16.66;48.34;100254.28;5066363;28;20060;-79
2022/04/21 16:13:49;;;;;;;8.93;7.88;;;;;;;16.60;47.77;100254.03;5053205;28;20131;-79
2022/04/21 16:16:18;;;;;;;9.93;7.07;;;;;;;16.66;48.11;100251.63;5058900;28;20068;-79
2022/04/21 16:18:45;;;;;;;13.90;7.38;;;;;;;16.52;48.87;100256.09;5053448;28;20061;-79
2022/04/21 16:21:13;;;;;;;13.75;7.80;;;;;;;16.54;49.01;100248.78;5059252;28;20068;-78
2022/04/21 16:23:40;;;;;;;11.65;7.20;;;;;;;16.51;48.42;100241.25;5057656;28;20239;-80
2022/04/21 16:26:08;;;;;;;11.05;7.22;;;;;;;16.53;48.81;100252.44;5059377;28;20041;-79
2022/04/21 16:28:35;;;;;;;12.15;7.28;;;;;;;16.50;49.05;100247.56;5058799;28;20151;-79
2022/04/21 16:31:01;;;;;;;11.55;7.18;;;;;;;16.44;48.90;100251.00;5058992;28;20479;-78
2022/04/21 16:33:29;;;;;;;10.25;6.88;;;;;;;16.31;49.01;100241.25;5059437;28;20109;-79
2022/04/21 16:35:56;;;;;;;9.82;7.45;;;;;;;16.23;49.12;100244.91;5064852;28;20084;-80
2022/04/21 16:38:24;;;;;;;9.45;6.22;;;;;;;16.18;48.88;100249.16;5059374;28;20845;-78
2022/04/21 16:40:51;;;;;;;12.00;6.43;;;;;;;16.18;48.90;100244.69;5056996;28;20055;-79
2022/04/21 16:43:18;;;;;;;10.45;6.43;;;;;;;16.12;48.76;100244.69;5057958;28;20578;-79
2022/04/21 16:45:44;;;;;;;12.02;6.43;;;;;;;16.13;48.91;100247.13;5051830;28;20049;-79
2022/04/21 16:48:11;;;;;;;9.32;6.00;;;;;;;16.14;49.07;100242.66;5054383;28;20455;-79
2022/04/21 16:50:38;;;;;;;10.25;6.18;;;;;;;16.16;49.16;100241.44;5055157;28;20089;-78
2022/04/21 16:53:05;;;;;;;10.93;6.10;;;;;;;16.13;49.08;100246.31;5057073;28;20538;-78
2022/04/21 16:55:35;;;;;;;7.55;5.90;;;;;;;16.21;49.18;100238.19;5055499;28;20503;-79